Time,TemperatureF,DewpointF,PressureIn,WindDirection,WindDirectionDegrees,WindSpeedMPH,WindSpeedGustMPH,Humidity,HourlyPrecipIn,Conditions,Clouds,dailyrainin,SoftwareType,DateUTC
2013-03-05 00:13:00,38.1,26.0,30.29,SSE,168,2.0,3.0,62,0.00,,,0.00,weatherlink.com 1.10,2013-03-05 05:13:00,
2013-03-05 00:28:00,38.1,26.0,30.30,South,169,1.0,3.0,62,0.00,,,0.00,weatherlink.com 1.10,2013-03-05 05:28:00,
2013-03-05 00:43:00,38.2,26.0,30.29,South,173,1.0,4.0,62,0.00,,,0.00,weatherlink.com 1.10,2013-03-05 05:43:00,
2013-03-05 00:58:00,38.7,26.0,30.29,South,173,3.0,4.0,61,0.00,,,0.00,weatherlink.com 1.10,2013-03-05 05:58:00,
2013-03-05 01:13:00,38.7,27.0,30.28,South,187,1.0,5.0,62,0.00,,,0.00,weatherlink.com 1.10,2013-03-05 06:13:00,
2013-03-05 01:29:00,38.8,27.0,30.28,SSE,163,2.0,4.0,62,0.00,,,0.00,weatherlink.com 1.10,2013-03-05 06:29:00,
2013-03-05 01:44:00,38.7,27.0,30.28,SSE,150,3.0,4.0,63,0.00,,,0.00,weatherlink.com 1.10,2013-03-05 06:44:00,
2013-03-05 01:59:00,38.9,27.0,30.27,SSE,161,1.0,5.0,63,0.00,,,0.00,weatherlink.com 1.10,2013-03-05 06:59:00,
2013-03-05 02:14:00,38.7,27.0,30.27,ESE,102,0.0,3.0,64,0.00,,,0.00,weatherlink.com 1.10,2013-03-05 07:14:00,
2013-03-05 02:29:00,38.3,27.0,30.26,SSE,167,3.0,4.0,65,0.00,,,0.00,weatherlink.com 1.10,2013-03-05 07:29:00,
2013-03-05 02:44:00,37.8,27.0,30.25,ESE,118,2.0,3.0,64,0.00,,,0.00,weatherlink.com 1.10,2013-03-05 07:44:00,
2013-03-05 02:59:00,37.0,27.0,30.23,SSE,156,1.0,5.0,68,0.00,,,0.00,weatherlink.com 1.10,2013-03-05 07:59:00,
2013-03-05 03:14:00,37.3,28.0,30.23,SSE,162,0.0,3.0,68,0.00,,,0.00,weatherlink.com 1.10,2013-03-05 08:14:00,
2013-03-05 03:29:00,37.7,28.0,30.23,SSE,159,0.0,2.0,68,0.00,,,0.00,weatherlink.com 1.10,2013-03-05 08:29:00,
2013-03-05 03:44:00,38.8,29.0,30.22,SSE,160,0.0,2.0,68,0.00,,,0.00,weatherlink.com 1.10,2013-03-05 08:44:00,
2013-03-05 04:00:00,38.7,29.0,30.22,SSE,160,1.0,2.0,67,0.00,,,0.00,weatherlink.com 1.10,2013-03-05 09:00:00,
2013-03-05 04:14:00,39.0,28.0,30.21,SSE,160,0.0,2.0,65,0.00,,,0.00,weatherlink.com 1.10,2013-03-05 09:14:00,
2013-03-05 04:29:00,39.4,29.0,30.21,ENE,77,1.0,2.0,67,0.00,,,0.00,weatherlink.com 1.10,2013-03-05 09:29:00,
2013-03-05 04:44:00,39.5,30.0,30.20,SSW,197,0.0,3.0,69,0.00,,,0.00,weatherlink.com 1.10,2013-03-05 09:44:00,
2013-03-05 04:59:00,39.2,30.0,30.20,SE,142,2.0,2.0,69,0.00,,,0.00,weatherlink.com 1.10,2013-03-05 09:59:00,
2013-03-05 05:14:00,38.9,29.0,30.20,SE,142,0.0,0.0,69,0.00,,,0.00,weatherlink.com 1.10,2013-03-05 10:14:00,
2013-03-05 05:29:00,39.0,31.0,30.20,South,169,0.0,2.0,73,0.00,,,0.00,weatherlink.com 1.10,2013-03-05 10:29:00,
2013-03-05 05:44:00,39.2,35.0,30.19,SSE,167,0.0,2.0,84,0.00,,,0.00,weatherlink.com 1.10,2013-03-05 10:44:00,
2013-03-05 05:59:00,38.5,34.0,30.19,SSE,167,0.0,0.0,83,0.00,,,0.00,weatherlink.com 1.10,2013-03-05 10:59:00,
2013-03-05 06:14:00,38.3,35.0,30.19,SSE,167,1.0,1.0,89,0.02,,,0.02,weatherlink.com 1.10,2013-03-05 11:14:00,
2013-03-05 06:29:00,38.7,37.0,30.18,SSE,167,0.0,1.0,93,0.02,,,0.02,weatherlink.com 1.10,2013-03-05 11:29:00,
2013-03-05 06:44:00,38.4,37.0,30.18,SSE,167,0.0,0.0,93,0.02,,,0.02,weatherlink.com 1.10,2013-03-05 11:44:00,
2013-03-05 06:59:00,38.4,37.0,30.18,SSE,167,0.0,0.0,94,0.02,,,0.02,weatherlink.com 1.10,2013-03-05 11:59:00,
2013-03-05 07:14:00,38.4,37.0,30.17,SSE,168,0.0,0.0,94,0.01,,,0.03,weatherlink.com 1.10,2013-03-05 12:14:00,
2013-03-05 07:29:00,38.4,37.0,30.17,SSE,167,0.0,0.0,94,0.01,,,0.03,weatherlink.com 1.10,2013-03-05 12:29:00,
2013-03-05 07:44:00,38.3,37.0,30.17,SSE,162,0.0,0.0,95,0.01,,,0.03,weatherlink.com 1.10,2013-03-05 12:44:00,
2013-03-05 07:59:00,38.4,37.0,30.16,SSE,163,0.0,2.0,95,0.01,,,0.03,weatherlink.com 1.10,2013-03-05 12:59:00,
2013-03-05 08:14:00,38.1,37.0,30.16,SSE,163,0.0,0.0,95,0.03,,,0.06,weatherlink.com 1.10,2013-03-05 13:14:00,
2013-03-05 08:29:00,37.6,36.0,30.15,SE,135,0.0,2.0,95,0.04,,,0.07,weatherlink.com 1.10,2013-03-05 13:29:00,
2013-03-05 08:44:00,37.8,37.0,30.15,SE,134,0.0,1.0,96,0.04,,,0.07,weatherlink.com 1.10,2013-03-05 13:44:00,
2013-03-05 08:59:00,37.8,37.0,30.15,SE,127,0.0,2.0,96,0.04,,,0.07,weatherlink.com 1.10,2013-03-05 13:59:00,
2013-03-05 09:14:00,37.0,36.0,30.14,NE,56,0.0,0.0,95,0.01,,,0.07,weatherlink.com 1.10,2013-03-05 14:14:00,
2013-03-05 09:29:00,36.7,36.0,30.14,ESE,115,0.0,0.0,96,0.00,,,0.07,weatherlink.com 1.10,2013-03-05 14:29:00,
2013-03-05 09:44:00,36.6,36.0,30.13,NW,305,0.0,2.0,97,0.00,,,0.07,weatherlink.com 1.10,2013-03-05 14:44:00,
2013-03-05 10:00:00,36.6,36.0,30.12,ENE,68,1.0,2.0,96,0.01,,,0.08,weatherlink.com 1.10,2013-03-05 15:00:00,
2013-03-05 10:15:00,37.3,37.0,30.11,WNW,295,2.0,5.0,97,0.01,,,0.08,weatherlink.com 1.10,2013-03-05 15:15:00,
2013-03-05 10:30:00,37.1,36.0,30.11,SE,131,0.0,0.0,97,0.01,,,0.08,weatherlink.com 1.10,2013-03-05 15:30:00,
2013-03-05 10:45:00,37.3,36.0,30.11,North,356,0.0,0.0,96,0.01,,,0.08,weatherlink.com 1.10,2013-03-05 15:45:00,
2013-03-05 11:00:00,36.9,36.0,30.10,East,93,0.0,0.0,96,0.01,,,0.09,weatherlink.com 1.10,2013-03-05 16:00:00,
2013-03-05 11:15:00,37.0,36.0,30.09,ESE,105,0.0,0.0,97,0.02,,,0.10,weatherlink.com 1.10,2013-03-05 16:15:00,
2013-03-05 11:30:00,37.3,37.0,30.09,SE,145,0.0,0.0,97,0.02,,,0.10,weatherlink.com 1.10,2013-03-05 16:30:00,
2013-03-05 11:45:00,38.0,38.0,30.07,NNW,333,0.0,1.0,98,0.02,,,0.10,weatherlink.com 1.10,2013-03-05 16:45:00,
2013-03-05 12:00:00,38.3,38.0,30.06,SE,146,1.0,2.0,98,0.01,,,0.10,weatherlink.com 1.10,2013-03-05 17:00:00,
2013-03-05 12:15:00,39.2,39.0,30.06,SW,219,0.0,4.0,98,0.01,,,0.11,weatherlink.com 1.10,2013-03-05 17:15:00,
2013-03-05 12:30:00,39.6,39.0,30.06,SE,129,1.0,2.0,98,0.01,,,0.11,weatherlink.com 1.10,2013-03-05 17:30:00,
2013-03-05 12:45:00,40.7,40.0,30.04,SE,146,0.0,3.0,98,0.01,,,0.11,weatherlink.com 1.10,2013-03-05 17:45:00,
2013-03-05 13:00:00,42.1,42.0,30.04,SSW,205,1.0,3.0,98,0.01,,,0.11,weatherlink.com 1.10,2013-03-05 18:00:00,
2013-03-05 13:15:00,41.7,41.0,30.02,WNW,297,0.0,4.0,98,0.00,,,0.11,weatherlink.com 1.10,2013-03-05 18:15:00,
2013-03-05 13:30:00,41.9,41.0,30.01,WNW,295,0.0,2.0,98,0.00,,,0.11,weatherlink.com 1.10,2013-03-05 18:30:00,
2013-03-05 13:45:00,45.0,45.0,29.99,SW,224,2.0,2.0,99,0.00,,,0.11,weatherlink.com 1.10,2013-03-05 18:45:00,
2013-03-05 14:00:00,46.3,46.0,29.98,NW,319,0.0,4.0,99,0.00,,,0.11,weatherlink.com 1.10,2013-03-05 19:00:00,
2013-03-05 14:15:00,46.6,46.0,29.97,NNW,336,5.0,5.0,98,0.01,,,0.12,weatherlink.com 1.10,2013-03-05 19:15:00,
2013-03-05 14:31:00,47.3,47.0,29.96,West,271,1.0,7.0,98,0.03,,,0.14,weatherlink.com 1.10,2013-03-05 19:31:00,
2013-03-05 14:46:00,48.1,47.0,29.95,West,278,2.0,13.0,96,0.04,,,0.15,weatherlink.com 1.10,2013-03-05 19:46:00,
2013-03-05 15:01:00,48.0,47.0,29.92,WNW,300,8.0,14.0,96,0.04,,,0.15,weatherlink.com 1.10,2013-03-05 20:01:00,
2013-03-05 15:16:00,48.4,47.0,29.92,ESE,113,4.0,8.0,96,0.03,,,0.15,weatherlink.com 1.10,2013-03-05 20:16:00,
2013-03-05 15:31:00,49.1,48.0,29.91,SSW,204,2.0,9.0,94,0.01,,,0.15,weatherlink.com 1.10,2013-03-05 20:31:00,
2013-03-05 15:46:00,49.7,48.0,29.90,WSW,250,2.0,17.0,93,0.00,,,0.15,weatherlink.com 1.10,2013-03-05 20:46:00,
2013-03-05 16:01:00,49.5,48.0,29.87,SSE,153,1.0,5.0,94,0.01,,,0.16,weatherlink.com 1.10,2013-03-05 21:01:00,
2013-03-05 16:16:00,49.2,48.0,29.86,WNW,294,0.0,4.0,94,0.04,,,0.19,weatherlink.com 1.10,2013-03-05 21:16:00,
2013-03-05 16:31:00,49.3,48.0,29.85,SSE,167,1.0,9.0,94,0.07,,,0.22,weatherlink.com 1.10,2013-03-05 21:31:00,
2013-03-05 16:46:00,48.9,48.0,29.84,NE,42,7.0,7.0,95,0.15,,,0.30,weatherlink.com 1.10,2013-03-05 21:46:00,
2013-03-05 17:01:00,48.9,47.0,29.84,SSW,193,0.0,8.0,94,0.24,,,0.40,weatherlink.com 1.10,2013-03-05 22:01:00,
2013-03-05 17:16:00,48.6,48.0,29.86,East,91,1.0,3.0,96,0.33,,,0.52,weatherlink.com 1.10,2013-03-05 22:16:00,
2013-03-05 17:46:00,48.8,48.0,29.85,WSW,255,0.0,4.0,95,0.31,,,0.61,weatherlink.com 1.10,2013-03-05 22:46:00,
2013-03-05 18:01:00,47.7,46.0,29.88,South,187,3.0,11.0,92,0.32,,,0.72,weatherlink.com 1.10,2013-03-05 23:01:00,
2013-03-05 18:16:00,45.9,44.0,29.86,WSW,246,1.0,2.0,94,0.25,,,0.77,weatherlink.com 1.10,2013-03-05 23:16:00,
2013-03-05 18:31:00,46.0,44.0,29.85,West,259,1.0,12.0,92,0.18,,,0.77,weatherlink.com 1.10,2013-03-05 23:31:00,
2013-03-05 18:46:00,45.6,42.0,29.87,SW,219,2.0,6.0,86,0.16,,,0.77,weatherlink.com 1.10,2013-03-05 23:46:00,
2013-03-05 19:01:00,45.6,42.0,29.86,SSW,207,1.0,11.0,86,0.04,,,0.77,weatherlink.com 1.10,2013-03-06 00:01:00,
2013-03-05 19:16:00,45.1,42.0,29.84,SSW,204,1.0,7.0,87,0.00,,,0.77,weatherlink.com 1.10,2013-03-06 00:16:00,
2013-03-05 19:31:00,45.2,41.0,29.85,WSW,245,4.0,10.0,85,0.00,,,0.77,weatherlink.com 1.10,2013-03-06 00:31:00,
2013-03-05 19:46:00,44.7,41.0,29.86,SE,131,0.0,7.0,86,0.02,,,0.79,weatherlink.com 1.10,2013-03-06 00:46:00,
2013-03-05 20:01:00,43.5,40.0,29.86,WSW,257,3.0,6.0,87,0.02,,,0.79,weatherlink.com 1.10,2013-03-06 01:01:00,
2013-03-05 20:16:00,43.2,39.0,29.87,ENE,68,0.0,5.0,86,0.02,,,0.79,weatherlink.com 1.10,2013-03-06 01:16:00,
2013-03-05 20:31:00,41.1,38.0,29.89,SW,233,1.0,13.0,88,0.02,,,0.79,weatherlink.com 1.10,2013-03-06 01:31:00,
2013-03-05 20:46:00,39.6,36.0,29.89,SSW,210,5.0,14.0,88,0.00,,,0.79,weatherlink.com 1.10,2013-03-06 01:46:00,
2013-03-05 21:01:00,38.4,34.0,29.89,NW,317,2.0,11.0,85,0.00,,,0.79,weatherlink.com 1.10,2013-03-06 02:01:00,
2013-03-05 21:16:00,37.5,33.0,29.89,WSW,243,5.0,9.0,85,0.00,,,0.79,weatherlink.com 1.10,2013-03-06 02:16:00,
2013-03-05 21:31:00,36.5,33.0,29.91,SW,221,5.0,10.0,86,0.00,,,0.79,weatherlink.com 1.10,2013-03-06 02:31:00,
2013-03-05 21:46:00,35.1,31.0,29.92,SSW,208,2.0,11.0,84,0.00,,,0.79,weatherlink.com 1.10,2013-03-06 02:46:00,
2013-03-05 22:01:00,33.9,30.0,29.93,WNW,290,5.0,10.0,85,0.00,,,0.79,weatherlink.com 1.10,2013-03-06 03:01:00,
2013-03-05 22:31:00,31.4,28.0,29.94,NW,309,6.0,13.0,87,0.00,,,0.79,weatherlink.com 1.10,2013-03-06 03:31:00,
2013-03-05 22:46:00,30.8,27.0,29.94,SW,222,1.0,9.0,86,0.00,,,0.79,weatherlink.com 1.10,2013-03-06 03:46:00,
2013-03-05 23:01:00,30.4,26.0,29.93,SW,222,0.0,7.0,84,0.00,,,0.79,weatherlink.com 1.10,2013-03-06 04:01:00,
2013-03-05 23:16:00,30.1,26.0,29.93,West,277,6.0,6.0,83,0.00,,,0.79,weatherlink.com 1.10,2013-03-06 04:16:00,
2013-03-05 23:47:00,29.3,24.0,29.93,West,273,3.0,13.0,80,0.00,,,0.79,weatherlink.com 1.10,2013-03-06 04:47:00,